Time;durP1;ratioP1;P1;durP2;ratioP2;P2;SDS_P1;SDS_P2;PMS_P1;PMS_P2;Temp;Humidity;BMP_temperature;BMP_pressure;BME280_temperature;BME280_humidity;BME280_pressure;Samples;Min_cycle;Max_cycle;Signal;HPM_P1;HPM_P2
2022/09/18 00:01:21;;;;;;;10.73;7.63;;;;;;;;;;746981;184;919313;-56
2022/09/18 00:03:46;;;;;;;12.67;7.97;;;;;;;;;;759344;184;920946;-55
2022/09/18 00:06:12;;;;;;;12.50;7.30;;;;;;;;;;754500;183;919366;-55
2022/09/18 00:08:38;;;;;;;21.93;8.00;;;;;;;;;;751034;185;911359;-55
2022/09/18 00:11:04;;;;;;;11.83;7.13;;;;;;;;;;756315;184;919915;-54
2022/09/18 00:13:30;;;;;;;9.80;7.20;;;;;;;;;;755202;185;919162;-54
2022/09/18 00:15:55;;;;;;;13.13;8.83;;;;;;;;;;755023;182;919191;-55
2022/09/18 00:18:21;;;;;;;12.63;7.73;;;;;;;;;;752291;184;919285;-54
2022/09/18 00:20:47;;;;;;;11.30;6.27;;;;;;;;;;749909;182;920342;-54
2022/09/18 00:23:14;;;;;;;16.00;7.40;;;;;;;;;;748794;185;912309;-55
2022/09/18 00:25:39;;;;;;;12.97;6.57;;;;;;;;;;750132;185;917689;-55
2022/09/18 00:28:05;;;;;;;12.57;6.40;;;;;;;;;;761799;184;894183;-53
2022/09/18 00:30:32;;;;;;;14.47;6.43;;;;;;;;;;753644;184;920127;-54
2022/09/18 00:32:58;;;;;;;11.23;6.03;;;;;;;;;;746454;183;919930;-54
2022/09/18 00:35:24;;;;;;;11.77;5.57;;;;;;;;;;757184;185;880810;-54
2022/09/18 00:37:50;;;;;;;13.00;6.30;;;;;;;;;;751789;185;919600;-55
2022/09/18 00:40:15;;;;;;;12.17;4.93;;;;;;;;;;751460;183;919853;-56
2022/09/18 00:42:41;;;;;;;11.50;4.73;;;;;;;;;;754769;185;920632;-54
2022/09/18 00:45:09;;;;;;;7.67;4.50;;;;;;;;;;758939;182;919705;-54
2022/09/18 00:47:34;;;;;;;12.23;4.87;;;;;;;;;;750460;184;919295;-54
2022/09/18 00:50:04;;;;;;;9.43;5.17;;;;;;;;;;756793;181;921734;-55
2022/09/18 00:52:30;;;;;;;12.80;4.80;;;;;;;;;;755350;184;918562;-56
2022/09/18 00:54:56;;;;;;;6.93;4.60;;;;;;;;;;757447;184;922604;-55
2022/09/18 00:57:21;;;;;;;8.33;4.80;;;;;;;;;;754186;184;919417;-54
2022/09/18 00:59:48;;;;;;;22.50;5.37;;;;;;;;;;760216;184;919447;-54
2022/09/18 01:02:13;;;;;;;13.57;5.50;;;;;;;;;;750258;186;818449;-54
2022/09/18 01:04:39;;;;;;;10.60;4.90;;;;;;;;;;749346;182;927268;-53
2022/09/18 01:07:09;;;;;;;12.13;5.65;;;;;;;;;;749659;182;918259;-55
2022/09/18 01:09:40;;;;;;;10.50;5.57;;;;;;;;;;764391;180;918935;-54
2022/09/18 01:12:04;;;;;;;8.70;5.03;;;;;;;;;;751944;182;920666;-54
2022/09/18 01:14:35;;;;;;;8.90;5.63;;;;;;;;;;756570;184;916981;-54
2022/09/18 01:17:17;;;;;;;11.07;4.80;;;;;;;;;;748436;186;913801;-54
2022/09/18 01:19:59;;;;;;;11.82;5.07;;;;;;;;;;745313;185;918972;-55
2022/09/18 01:22:31;;;;;;;8.90;5.03;;;;;;;;;;754302;182;940648;-55
2022/09/18 01:25:00;;;;;;;9.00;5.70;;;;;;;;;;750440;187;920284;-55
2022/09/18 01:27:32;;;;;;;9.27;5.83;;;;;;;;;;754231;185;919772;-54
2022/09/18 01:29:58;;;;;;;10.50;4.90;;;;;;;;;;756416;184;923369;-54
2022/09/18 01:32:24;;;;;;;12.97;5.60;;;;;;;;;;750336;185;936990;-54
2022/09/18 01:34:52;;;;;;;8.07;4.77;;;;;;;;;;758820;185;914880;-55
2022/09/18 01:37:17;;;;;;;7.47;4.80;;;;;;;;;;734960;188;920668;-54
2022/09/18 01:39:44;;;;;;;9.10;4.93;;;;;;;;;;747145;185;937553;-54
2022/09/18 01:42:10;;;;;;;8.77;4.73;;;;;;;;;;757507;185;817521;-54
2022/09/18 01:44:36;;;;;;;11.13;5.00;;;;;;;;;;751491;185;920389;-54
2022/09/18 01:47:02;;;;;;;10.37;4.87;;;;;;;;;;755636;185;918125;-54
2022/09/18 01:49:28;;;;;;;21.63;4.73;;;;;;;;;;754082;184;917429;-55
2022/09/18 01:51:55;;;;;;;8.27;4.30;;;;;;;;;;760773;183;918759;-55
2022/09/18 01:54:21;;;;;;;6.37;3.93;;;;;;;;;;752466;185;918855;-55
2022/09/18 01:56:50;;;;;;;5.62;3.75;;;;;;;;;;752699;180;942000;-55
2022/09/18 01:59:16;;;;;;;9.87;5.23;;;;;;;;;;757924;185;918502;-54
2022/09/18 02:01:42;;;;;;;10.00;3.72;;;;;;;;;;751394;184;921109;-55
2022/09/18 02:04:08;;;;;;;7.83;5.40;;;;;;;;;;754247;182;919967;-54
2022/09/18 02:06:34;;;;;;;11.20;4.23;;;;;;;;;;757875;184;927819;-55
2022/09/18 02:09:00;;;;;;;10.77;4.33;;;;;;;;;;755513;182;937387;-54
2022/09/18 02:11:25;;;;;;;6.00;4.20;;;;;;;;;;748049;180;919482;-53
2022/09/18 02:13:53;;;;;;;5.97;3.70;;;;;;;;;;749990;184;919342;-55
2022/09/18 02:16:23;;;;;;;12.73;4.50;;;;;;;;;;759520;184;808798;-54
2022/09/18 02:18:48;;;;;;;12.33;4.63;;;;;;;;;;751564;185;918724;-54
2022/09/18 02:21:14;;;;;;;5.63;3.33;;;;;;;;;;753298;185;919765;-54
2022/09/18 02:23:40;;;;;;;9.60;4.70;;;;;;;;;;758036;185;919341;-54
2022/09/18 02:26:06;;;;;;;9.63;3.90;;;;;;;;;;744436;185;961275;-54
2022/09/18 02:28:32;;;;;;;7.47;4.47;;;;;;;;;;762547;184;918933;-54
2022/09/18 02:30:58;;;;;;;15.83;4.33;;;;;;;;;;753404;184;919097;-55
2022/09/18 02:33:24;;;;;;;8.73;4.50;;;;;;;;;;765131;181;898541;-54
2022/09/18 02:35:50;;;;;;;13.27;4.27;;;;;;;;;;750295;184;918349;-54
2022/09/18 02:38:17;;;;;;;9.40;3.70;;;;;;;;;;757195;184;919909;-53
2022/09/18 02:40:49;;;;;;;10.18;5.75;;;;;;;;;;759945;185;919523;-54
2022/09/18 02:43:25;;;;;;;7.67;5.10;;;;;;;;;;758221;184;918947;-54
2022/09/18 02:45:55;;;;;;;16.93;5.63;;;;;;;;;;754522;184;920053;-54
2022/09/18 02:48:24;;;;;;;15.97;5.07;;;;;;;;;;752563;182;919902;-54
2022/09/18 02:50:52;;;;;;;10.30;4.50;;;;;;;;;;755398;184;919778;-54
2022/09/18 02:53:22;;;;;;;8.60;5.80;;;;;;;;;;762637;184;917167;-54
2022/09/18 02:55:48;;;;;;;8.90;5.03;;;;;;;;;;750795;184;919880;-55
2022/09/18 02:58:15;;;;;;;9.70;5.33;;;;;;;;;;755853;184;919725;-54
2022/09/18 03:00:41;;;;;;;13.30;6.37;;;;;;;;;;753488;185;824675;-55
2022/09/18 03:03:07;;;;;;;10.43;6.77;;;;;;;;;;764732;181;917378;-54
2022/09/18 03:05:33;;;;;;;8.93;5.30;;;;;;;;;;753526;184;921481;-54
2022/09/18 03:07:58;;;;;;;12.57;7.10;;;;;;;;;;748887;184;918118;-54
2022/09/18 03:10:25;;;;;;;9.20;6.57;;;;;;;;;;765623;184;778386;-53
2022/09/18 03:12:50;;;;;;;9.70;5.67;;;;;;;;;;755142;184;918288;-55
2022/09/18 03:15:16;;;;;;;12.87;7.00;;;;;;;;;;751521;184;817575;-54
2022/09/18 03:17:42;;;;;;;10.60;5.20;;;;;;;;;;760091;181;919288;-54
2022/09/18 03:20:08;;;;;;;12.33;6.17;;;;;;;;;;751672;182;919517;-55
2022/09/18 03:22:34;;;;;;;8.30;5.50;;;;;;;;;;754541;181;995269;-55
2022/09/18 03:25:00;;;;;;;13.60;4.60;;;;;;;;;;758679;184;947577;-56
2022/09/18 03:27:25;;;;;;;11.10;5.73;;;;;;;;;;763614;181;915338;-53
2022/09/18 03:29:51;;;;;;;10.53;5.20;;;;;;;;;;747713;185;920486;-55
2022/09/18 03:32:17;;;;;;;7.57;4.30;;;;;;;;;;747172;185;920082;-54
2022/09/18 03:34:43;;;;;;;10.73;4.87;;;;;;;;;;763068;180;919013;-54
2022/09/18 03:37:09;;;;;;;11.00;5.03;;;;;;;;;;753760;185;920013;-54
2022/09/18 03:39:35;;;;;;;10.37;6.13;;;;;;;;;;751888;185;920576;-55
2022/09/18 03:42:01;;;;;;;8.73;6.17;;;;;;;;;;758595;184;921437;-54
2022/09/18 03:44:26;;;;;;;7.80;4.60;;;;;;;;;;754396;184;919451;-54
2022/09/18 03:46:52;;;;;;;10.50;6.63;;;;;;;;;;753873;184;916721;-54
2022/09/18 03:49:18;;;;;;;10.07;4.90;;;;;;;;;;755792;182;916185;-54
2022/09/18 03:51:44;;;;;;;14.40;5.50;;;;;;;;;;754285;185;919133;-54
2022/09/18 03:54:10;;;;;;;9.73;4.80;;;;;;;;;;750554;185;928783;-55
2022/09/18 03:56:37;;;;;;;9.23;4.80;;;;;;;;;;747409;184;918641;-54
2022/09/18 03:59:01;;;;;;;12.43;4.87;;;;;;;;;;752059;185;918823;-54
2022/09/18 04:01:27;;;;;;;13.10;5.00;;;;;;;;;;757167;184;920177;-54
2022/09/18 04:03:53;;;;;;;10.70;5.50;;;;;;;;;;757390;184;919098;-55
2022/09/18 04:06:19;;;;;;;11.50;5.53;;;;;;;;;;760428;185;911700;-53
2022/09/18 04:08:45;;;;;;;7.87;5.40;;;;;;;;;;752808;184;920210;-54
2022/09/18 04:11:11;;;;;;;8.97;5.63;;;;;;;;;;754986;184;921022;-55
2022/09/18 04:13:36;;;;;;;12.10;5.97;;;;;;;;;;754279;185;918857;-55
2022/09/18 04:16:02;;;;;;;10.50;6.20;;;;;;;;;;752993;183;918828;-54
2022/09/18 04:18:28;;;;;;;16.15;7.15;;;;;;;;;;751192;184;923231;-55
2022/09/18 04:20:54;;;;;;;18.53;6.90;;;;;;;;;;761764;183;922632;-53
2022/09/18 04:23:20;;;;;;;9.80;5.57;;;;;;;;;;757390;184;918627;-54
2022/09/18 04:25:46;;;;;;;12.27;6.90;;;;;;;;;;752833;184;919327;-55
2022/09/18 04:28:11;;;;;;;11.73;6.90;;;;;;;;;;754587;184;917952;-55
2022/09/18 04:30:37;;;;;;;7.83;5.87;;;;;;;;;;762451;184;818347;-55
2022/09/18 04:33:03;;;;;;;14.90;6.67;;;;;;;;;;753761;184;919294;-55
2022/09/18 04:35:29;;;;;;;12.70;6.57;;;;;;;;;;758017;184;816179;-55
2022/09/18 04:37:55;;;;;;;7.80;5.87;;;;;;;;;;763895;184;919451;-55
2022/09/18 04:40:21;;;;;;;7.90;5.80;;;;;;;;;;751213;185;919348;-54
2022/09/18 04:42:46;;;;;;;9.88;6.50;;;;;;;;;;755193;184;919526;-54
2022/09/18 04:45:12;;;;;;;13.83;6.60;;;;;;;;;;755260;183;914796;-54
2022/09/18 04:47:39;;;;;;;11.83;7.13;;;;;;;;;;756559;182;848851;-54
2022/09/18 04:50:07;;;;;;;8.80;7.23;;;;;;;;;;748613;184;917211;-54
2022/09/18 04:52:30;;;;;;;10.87;7.03;;;;;;;;;;755439;183;918647;-54
2022/09/18 04:54:56;;;;;;;9.10;5.93;;;;;;;;;;761157;184;817968;-55
2022/09/18 04:57:22;;;;;;;13.57;5.93;;;;;;;;;;753515;184;919940;-54
2022/09/18 04:59:48;;;;;;;11.73;6.17;;;;;;;;;;752418;184;919714;-56
2022/09/18 05:02:14;;;;;;;11.40;6.00;;;;;;;;;;753659;185;922543;-55
2022/09/18 05:04:39;;;;;;;14.30;6.70;;;;;;;;;;757459;184;878849;-54
2022/09/18 05:07:05;;;;;;;8.57;5.90;;;;;;;;;;752555;185;920867;-55
2022/09/18 05:09:31;;;;;;;15.33;6.70;;;;;;;;;;756004;185;923536;-54
2022/09/18 05:11:57;;;;;;;6.03;4.90;;;;;;;;;;749776;185;920352;-54
2022/09/18 05:14:23;;;;;;;11.23;5.73;;;;;;;;;;750895;185;918908;-54
2022/09/18 05:16:49;;;;;;;11.10;7.67;;;;;;;;;;752530;184;915325;-55
2022/09/18 05:19:14;;;;;;;10.40;6.55;;;;;;;;;;756283;185;919667;-61
2022/09/18 05:21:40;;;;;;;7.90;5.37;;;;;;;;;;755374;184;918135;-55
2022/09/18 05:24:06;;;;;;;9.50;5.83;;;;;;;;;;753949;182;818194;-54
2022/09/18 05:26:32;;;;;;;12.40;6.30;;;;;;;;;;751108;183;913091;-54
2022/09/18 05:28:58;;;;;;;11.90;5.10;;;;;;;;;;749218;184;919342;-54
2022/09/18 05:31:24;;;;;;;12.80;6.40;;;;;;;;;;751930;184;920548;-54
2022/09/18 05:33:50;;;;;;;9.87;5.40;;;;;;;;;;760492;184;919433;-55
2022/09/18 05:36:16;;;;;;;7.20;5.07;;;;;;;;;;755018;184;818028;-54
2022/09/18 05:38:44;;;;;;;6.73;4.87;;;;;;;;;;756589;184;817611;-54
2022/09/18 05:41:08;;;;;;;8.83;5.93;;;;;;;;;;754044;184;919733;-55
2022/09/18 05:43:34;;;;;;;8.37;5.73;;;;;;;;;;755826;182;916422;-55
2022/09/18 05:46:01;;;;;;;8.07;4.43;;;;;;;;;;752783;184;920350;-54
2022/09/18 05:48:26;;;;;;;7.53;4.85;;;;;;;;;;755255;184;912830;-55
2022/09/18 05:50:51;;;;;;;9.10;4.40;;;;;;;;;;756216;184;895310;-55
2022/09/18 05:53:17;;;;;;;6.60;3.80;;;;;;;;;;754376;182;915733;-54
2022/09/18 05:55:43;;;;;;;7.25;4.37;;;;;;;;;;755981;184;820570;-55
2022/09/18 05:58:09;;;;;;;5.97;3.97;;;;;;;;;;751809;185;917920;-54
2022/09/18 06:00:35;;;;;;;6.60;4.10;;;;;;;;;;755352;182;896448;-55
2022/09/18 06:03:01;;;;;;;7.10;4.10;;;;;;;;;;750887;185;912188;-55
2022/09/18 06:05:26;;;;;;;16.07;4.80;;;;;;;;;;754495;185;911284;-55
2022/09/18 06:07:52;;;;;;;6.62;3.97;;;;;;;;;;755691;184;917787;-55
2022/09/18 06:10:18;;;;;;;5.87;3.63;;;;;;;;;;749823;185;918052;-54
2022/09/18 06:12:44;;;;;;;10.60;3.90;;;;;;;;;;753867;184;910353;-54
2022/09/18 06:15:10;;;;;;;8.20;3.40;;;;;;;;;;755083;180;915553;-54
2022/09/18 06:17:36;;;;;;;5.03;2.90;;;;;;;;;;754029;184;919929;-54
2022/09/18 06:20:02;;;;;;;5.37;3.20;;;;;;;;;;753962;184;923768;-54
2022/09/18 06:22:27;;;;;;;5.30;2.77;;;;;;;;;;754034;184;919848;-54
2022/09/18 06:24:53;;;;;;;4.40;2.80;;;;;;;;;;738308;187;911151;-54
2022/09/18 06:27:19;;;;;;;10.57;2.40;;;;;;;;;;753056;184;918304;-54
2022/09/18 06:29:45;;;;;;;5.10;2.80;;;;;;;;;;751989;185;919160;-54
2022/09/18 06:32:11;;;;;;;3.67;2.77;;;;;;;;;;753651;184;919890;-54
2022/09/18 06:34:37;;;;;;;6.33;3.30;;;;;;;;;;753829;184;920068;-54
2022/09/18 06:37:02;;;;;;;5.43;2.77;;;;;;;;;;753076;181;917376;-54
2022/09/18 06:39:28;;;;;;;11.93;3.50;;;;;;;;;;761834;182;818404;-55
2022/09/18 06:41:54;;;;;;;10.50;2.87;;;;;;;;;;751910;184;928321;-54
2022/09/18 06:44:20;;;;;;;9.87;2.70;;;;;;;;;;755765;184;922066;-54
2022/09/18 06:46:46;;;;;;;6.83;2.70;;;;;;;;;;754667;184;919348;-54
2022/09/18 06:49:12;;;;;;;6.37;2.70;;;;;;;;;;754629;184;919976;-55
2022/09/18 06:51:39;;;;;;;8.03;3.00;;;;;;;;;;754360;184;919541;-54
2022/09/18 06:54:03;;;;;;;12.00;3.33;;;;;;;;;;754986;183;918544;-54
2022/09/18 06:56:29;;;;;;;4.70;3.13;;;;;;;;;;752471;184;911154;-54
2022/09/18 06:58:55;;;;;;;4.83;2.93;;;;;;;;;;756687;182;822111;-53
2022/09/18 07:01:22;;;;;;;4.55;3.70;;;;;;;;;;755524;181;919904;-55
2022/09/18 07:03:47;;;;;;;5.63;4.00;;;;;;;;;;766959;182;822001;-54
2022/09/18 07:06:13;;;;;;;5.53;2.80;;;;;;;;;;749802;183;921660;-54
2022/09/18 07:08:39;;;;;;;6.27;3.53;;;;;;;;;;748783;184;818704;-55
2022/09/18 07:11:05;;;;;;;5.87;3.67;;;;;;;;;;757004;183;921915;-54
2022/09/18 07:13:31;;;;;;;14.10;3.57;;;;;;;;;;752244;184;919353;-55
2022/09/18 07:15:56;;;;;;;8.10;4.13;;;;;;;;;;752201;181;919107;-54
2022/09/18 07:18:23;;;;;;;4.40;3.37;;;;;;;;;;753146;185;918801;-56
2022/09/18 07:20:48;;;;;;;6.07;2.63;;;;;;;;;;754135;184;919517;-54
2022/09/18 07:23:14;;;;;;;4.00;2.80;;;;;;;;;;755001;184;919791;-54
2022/09/18 07:25:40;;;;;;;4.47;2.60;;;;;;;;;;759456;184;920921;-55
2022/09/18 07:28:06;;;;;;;5.23;2.43;;;;;;;;;;757797;184;920081;-54
2022/09/18 07:30:32;;;;;;;10.40;2.60;;;;;;;;;;752885;184;820984;-54
2022/09/18 07:32:58;;;;;;;3.00;1.87;;;;;;;;;;750717;185;919696;-55
2022/09/18 07:35:24;;;;;;;9.10;2.27;;;;;;;;;;758321;184;915406;-55
2022/09/18 07:37:50;;;;;;;3.23;1.80;;;;;;;;;;750827;184;919949;-55
2022/09/18 07:40:16;;;;;;;3.70;1.77;;;;;;;;;;754236;184;920328;-55
2022/09/18 07:42:42;;;;;;;3.43;2.33;;;;;;;;;;759346;184;817805;-56
2022/09/18 07:45:08;;;;;;;5.80;2.20;;;;;;;;;;752036;185;816552;-54
2022/09/18 07:47:33;;;;;;;3.63;2.00;;;;;;;;;;757639;182;919329;-54
2022/09/18 07:50:00;;;;;;;3.77;2.73;;;;;;;;;;754463;184;918862;-55
2022/09/18 07:52:25;;;;;;;3.10;1.90;;;;;;;;;;754999;184;917809;-54
2022/09/18 07:54:51;;;;;;;10.50;1.90;;;;;;;;;;750346;183;818093;-54
2022/09/18 07:57:17;;;;;;;4.13;2.10;;;;;;;;;;756122;184;914779;-55
2022/09/18 07:59:43;;;;;;;2.20;1.53;;;;;;;;;;758653;184;893593;-54
2022/09/18 08:02:09;;;;;;;4.40;2.37;;;;;;;;;;752392;184;920086;-54
2022/09/18 08:04:35;;;;;;;2.40;1.60;;;;;;;;;;751602;181;991934;-55
2022/09/18 08:07:03;;;;;;;2.90;1.73;;;;;;;;;;754959;184;907740;-54
2022/09/18 08:09:26;;;;;;;3.60;1.67;;;;;;;;;;752090;184;918827;-54
2022/09/18 08:11:52;;;;;;;3.20;1.53;;;;;;;;;;756142;184;926952;-54
2022/09/18 08:14:18;;;;;;;2.50;1.50;;;;;;;;;;754617;184;920625;-54
2022/09/18 08:16:44;;;;;;;3.17;1.50;;;;;;;;;;750070;182;918738;-55
2022/09/18 08:19:11;;;;;;;3.43;1.60;;;;;;;;;;754800;184;821497;-55
2022/09/18 08:21:36;;;;;;;3.30;1.40;;;;;;;;;;752164;184;920161;-54
2022/09/18 08:24:02;;;;;;;2.47;1.40;;;;;;;;;;750122;183;923414;-54
2022/09/18 08:26:28;;;;;;;2.87;1.23;;;;;;;;;;756289;184;918821;-54
2022/09/18 08:28:53;;;;;;;2.37;1.53;;;;;;;;;;748274;185;918823;-54
2022/09/18 08:31:19;;;;;;;3.40;2.27;;;;;;;;;;756278;185;886354;-54
2022/09/18 08:33:45;;;;;;;2.20;1.30;;;;;;;;;;757509;184;920859;-54
2022/09/18 08:36:11;;;;;;;3.40;1.40;;;;;;;;;;749490;184;921037;-54
2022/09/18 08:38:37;;;;;;;2.50;1.30;;;;;;;;;;757323;184;919692;-55
2022/09/18 08:41:24;;;;;;;3.40;1.13;;;;;;;;;;753336;184;818464;-54
2022/09/18 08:43:55;;;;;;;1.70;0.90;;;;;;;;;;758532;183;920229;-54
2022/09/18 08:46:24;;;;;;;2.73;1.30;;;;;;;;;;754230;184;914142;-54
2022/09/18 08:48:51;;;;;;;2.43;1.30;;;;;;;;;;756057;183;920066;-55
2022/09/18 08:51:18;;;;;;;2.90;1.43;;;;;;;;;;757605;185;618462;-54
2022/09/18 08:53:45;;;;;;;2.00;1.20;;;;;;;;;;751901;185;919004;-54
2022/09/18 08:56:12;;;;;;;2.07;1.23;;;;;;;;;;748937;182;845398;-54
2022/09/18 08:58:37;;;;;;;1.97;1.00;;;;;;;;;;755487;184;870812;-55
2022/09/18 09:01:06;;;;;;;1.80;1.00;;;;;;;;;;754088;185;918838;-53
2022/09/18 09:03:34;;;;;;;2.90;1.30;;;;;;;;;;753551;184;920311;-54
2022/09/18 09:05:59;;;;;;;2.67;1.23;;;;;;;;;;751531;184;953562;-55
2022/09/18 09:08:40;;;;;;;3.80;1.20;;;;;;;;;;758898;184;919427;-54
2022/09/18 09:11:22;;;;;;;2.63;1.10;;;;;;;;;;759794;183;866901;-54
2022/09/18 09:13:50;;;;;;;2.37;1.20;;;;;;;;;;756837;184;920115;-54
2022/09/18 09:16:17;;;;;;;2.20;1.40;;;;;;;;;;750502;184;866255;-55
2022/09/18 09:18:44;;;;;;;2.40;1.30;;;;;;;;;;752880;183;930700;-54
2022/09/18 09:21:15;;;;;;;2.40;1.30;;;;;;;;;;747357;184;921350;-54
2022/09/18 09:23:43;;;;;;;2.20;1.10;;;;;;;;;;761018;184;919724;-54
2022/09/18 09:26:09;;;;;;;1.90;1.20;;;;;;;;;;755583;180;920471;-54
2022/09/18 09:28:36;;;;;;;3.47;1.20;;;;;;;;;;752855;181;917661;-55
2022/09/18 09:31:02;;;;;;;2.27;1.43;;;;;;;;;;752580;182;915797;-55
2022/09/18 09:33:30;;;;;;;4.40;1.40;;;;;;;;;;754346;185;942537;-55
2022/09/18 09:35:57;;;;;;;2.20;1.30;;;;;;;;;;756544;184;919034;-55
2022/09/18 09:38:24;;;;;;;1.95;1.10;;;;;;;;;;754791;181;918423;-54
2022/09/18 09:40:51;;;;;;;2.43;1.47;;;;;;;;;;751325;184;921443;-54
2022/09/18 09:43:31;;;;;;;2.47;1.47;;;;;;;;;;747561;184;918622;-54
2022/09/18 09:45:58;;;;;;;2.13;1.17;;;;;;;;;;755375;184;919533;-54
2022/09/18 09:48:23;;;;;;;2.30;1.30;;;;;;;;;;755254;182;919525;-54
2022/09/18 09:50:52;;;;;;;3.45;1.23;;;;;;;;;;751274;185;918158;-54
2022/09/18 09:53:18;;;;;;;2.00;1.20;;;;;;;;;;759868;181;876121;-54
2022/09/18 09:55:47;;;;;;;2.17;1.30;;;;;;;;;;749868;184;919056;-54
2022/09/18 09:58:14;;;;;;;2.10;1.10;;;;;;;;;;752545;184;918906;-54
2022/09/18 10:00:42;;;;;;;2.77;1.30;;;;;;;;;;751151;185;921761;-54
2022/09/18 10:03:10;;;;;;;3.40;1.37;;;;;;;;;;756098;185;917550;-54
2022/09/18 10:05:46;;;;;;;4.00;1.70;;;;;;;;;;752373;184;866154;-54
2022/09/18 10:08:16;;;;;;;3.93;1.40;;;;;;;;;;753212;185;841316;-56
2022/09/18 10:10:44;;;;;;;3.97;1.73;;;;;;;;;;748898;184;916742;-54
2022/09/18 10:13:15;;;;;;;2.33;1.40;;;;;;;;;;753166;184;884136;-54
2022/09/18 10:15:43;;;;;;;2.30;1.30;;;;;;;;;;751440;185;816460;-54
2022/09/18 10:18:13;;;;;;;2.80;1.23;;;;;;;;;;753996;182;920192;-54
2022/09/18 10:20:39;;;;;;;3.30;1.40;;;;;;;;;;757062;184;782482;-54
2022/09/18 10:23:05;;;;;;;2.40;1.62;;;;;;;;;;759019;184;902091;-54
2022/09/18 10:25:33;;;;;;;2.33;1.60;;;;;;;;;;752138;181;914089;-56
2022/09/18 10:27:59;;;;;;;2.20;1.43;;;;;;;;;;755202;184;820331;-54
2022/09/18 10:30:25;;;;;;;2.57;1.50;;;;;;;;;;753052;184;912618;-55
2022/09/18 10:32:51;;;;;;;3.47;2.00;;;;;;;;;;751223;183;932747;-54
2022/09/18 10:35:17;;;;;;;3.47;1.60;;;;;;;;;;749643;180;715084;-54
2022/09/18 10:37:43;;;;;;;2.40;1.60;;;;;;;;;;748292;185;925044;-54
2022/09/18 10:40:09;;;;;;;2.73;1.50;;;;;;;;;;751678;185;919535;-54
2022/09/18 10:42:35;;;;;;;3.27;1.97;;;;;;;;;;754875;184;918851;-55
2022/09/18 10:45:02;;;;;;;4.63;1.83;;;;;;;;;;754766;184;918716;-55
2022/09/18 10:47:26;;;;;;;5.10;2.13;;;;;;;;;;754775;185;919963;-54
2022/09/18 10:49:52;;;;;;;3.80;1.73;;;;;;;;;;748041;185;920361;-55
2022/09/18 10:52:19;;;;;;;6.40;1.80;;;;;;;;;;752319;184;919481;-54
2022/09/18 10:55:00;;;;;;;5.40;2.50;;;;;;;;;;754857;185;918256;-54
2022/09/18 10:57:27;;;;;;;3.87;2.30;;;;;;;;;;760069;184;716251;-54
2022/09/18 10:59:52;;;;;;;4.13;1.93;;;;;;;;;;754203;182;817959;-54
2022/09/18 11:02:18;;;;;;;3.30;2.70;;;;;;;;;;747159;184;904782;-54
2022/09/18 11:04:45;;;;;;;5.27;2.43;;;;;;;;;;754836;184;916564;-55
2022/09/18 11:07:11;;;;;;;4.90;2.80;;;;;;;;;;757119;184;824027;-54
2022/09/18 11:09:37;;;;;;;5.20;2.87;;;;;;;;;;753367;184;919572;-54
2022/09/18 11:12:03;;;;;;;7.63;2.80;;;;;;;;;;751008;184;919074;-54
2022/09/18 11:14:28;;;;;;;4.70;3.10;;;;;;;;;;753628;181;919267;-53
2022/09/18 11:16:54;;;;;;;6.85;3.30;;;;;;;;;;751146;185;820505;-52
2022/09/18 11:19:25;;;;;;;5.37;2.60;;;;;;;;;;755017;184;919516;-53
2022/09/18 11:21:53;;;;;;;7.03;4.03;;;;;;;;;;755194;185;638428;-53
2022/09/18 11:24:20;;;;;;;8.27;3.63;;;;;;;;;;748301;185;864746;-53
2022/09/18 11:26:47;;;;;;;5.97;2.93;;;;;;;;;;749866;181;714782;-53
2022/09/18 11:29:17;;;;;;;5.30;3.50;;;;;;;;;;750460;184;817211;-52
2022/09/18 11:31:43;;;;;;;13.17;3.50;;;;;;;;;;760554;184;823877;-53
2022/09/18 11:34:09;;;;;;;6.13;3.50;;;;;;;;;;756870;183;919241;-53
2022/09/18 11:36:39;;;;;;;5.70;2.87;;;;;;;;;;756200;184;817126;-53
2022/09/18 11:39:01;;;;;;;10.70;3.67;;;;;;;;;;754459;184;918048;-56
2022/09/18 11:41:28;;;;;;;6.00;2.97;;;;;;;;;;757407;184;918779;-53
2022/09/18 11:43:55;;;;;;;5.67;3.17;;;;;;;;;;757715;183;816699;-53
2022/09/18 11:46:20;;;;;;;9.10;3.40;;;;;;;;;;751369;184;817714;-53
2022/09/18 11:48:46;;;;;;;10.77;3.30;;;;;;;;;;759555;183;854561;-54
2022/09/18 11:51:13;;;;;;;5.90;3.00;;;;;;;;;;754265;184;819839;-53
2022/09/18 11:53:38;;;;;;;5.30;2.85;;;;;;;;;;754991;181;899581;-54
2022/09/18 11:56:04;;;;;;;10.30;3.57;;;;;;;;;;753419;185;918517;-53
2022/09/18 11:58:47;;;;;;;8.20;2.77;;;;;;;;;;756263;184;914623;-53
2022/09/18 12:01:19;;;;;;;7.00;2.37;;;;;;;;;;746952;184;941686;-53
2022/09/18 12:03:48;;;;;;;8.27;3.03;;;;;;;;;;752330;184;919476;-53
2022/09/18 12:06:12;;;;;;;5.97;2.37;;;;;;;;;;750345;182;919704;-53
2022/09/18 12:08:46;;;;;;;9.73;3.10;;;;;;;;;;755162;183;918638;-53
2022/09/18 12:11:28;;;;;;;5.40;3.10;;;;;;;;;;758616;185;886340;-54
2022/09/18 12:14:00;;;;;;;4.50;2.60;;;;;;;;;;756553;184;621113;-53
2022/09/18 12:16:29;;;;;;;8.20;2.40;;;;;;;;;;748460;184;896367;-53
2022/09/18 12:18:57;;;;;;;6.75;2.72;;;;;;;;;;752849;182;915254;-53
2022/09/18 12:21:23;;;;;;;4.93;2.30;;;;;;;;;;750852;184;920761;-54
2022/09/18 12:23:49;;;;;;;6.97;3.10;;;;;;;;;;752737;185;921670;-54
2022/09/18 12:26:17;;;;;;;8.57;2.80;;;;;;;;;;749556;184;937721;-52
2022/09/18 12:28:59;;;;;;;9.27;2.60;;;;;;;;;;749212;184;804935;-53
2022/09/18 12:31:26;;;;;;;4.73;2.27;;;;;;;;;;739620;185;942086;-54
2022/09/18 12:33:56;;;;;;;8.57;2.53;;;;;;;;;;758036;184;917162;-54
2022/09/18 12:36:36;;;;;;;4.50;2.30;;;;;;;;;;748753;184;819632;-54
2022/09/18 12:39:08;;;;;;;5.80;2.53;;;;;;;;;;749696;184;921147;-54
2022/09/18 12:41:43;;;;;;;3.90;1.90;;;;;;;;;;749836;184;921615;-54
2022/09/18 12:44:15;;;;;;;5.60;2.10;;;;;;;;;;755884;184;916742;-54
2022/09/18 12:46:53;;;;;;;4.83;2.00;;;;;;;;;;752800;184;913058;-55
2022/09/18 12:49:35;;;;;;;6.40;1.90;;;;;;;;;;749414;184;920051;-55
2022/09/18 12:52:02;;;;;;;3.10;1.63;;;;;;;;;;747596;184;919826;-55
2022/09/18 12:54:47;;;;;;;6.53;1.90;;;;;;;;;;759569;181;919036;-54
2022/09/18 12:57:15;;;;;;;7.43;2.30;;;;;;;;;;757460;184;878576;-54
2022/09/18 12:59:41;;;;;;;2.80;1.60;;;;;;;;;;750258;185;919082;-54
2022/09/18 13:02:26;;;;;;;5.50;1.63;;;;;;;;;;752060;184;919749;-54
2022/09/18 13:04:54;;;;;;;3.03;1.33;;;;;;;;;;749121;184;917358;-54
2022/09/18 13:07:20;;;;;;;2.67;1.50;;;;;;;;;;752469;184;918146;-54
2022/09/18 13:09:47;;;;;;;6.13;2.13;;;;;;;;;;749878;185;921555;-54
2022/09/18 13:12:13;;;;;;;4.37;1.80;;;;;;;;;;751654;185;921043;-54
2022/09/18 13:14:39;;;;;;;3.87;1.90;;;;;;;;;;756125;184;914663;-52
2022/09/18 13:17:05;;;;;;;7.13;1.60;;;;;;;;;;758090;184;920019;-55
2022/09/18 13:19:31;;;;;;;3.77;2.10;;;;;;;;;;755229;180;822595;-54
2022/09/18 13:21:56;;;;;;;4.10;2.17;;;;;;;;;;754724;183;818727;-54
2022/09/18 13:24:22;;;;;;;2.87;1.73;;;;;;;;;;754890;185;816886;-54
2022/09/18 13:26:48;;;;;;;2.77;1.63;;;;;;;;;;755561;184;943926;-54
2022/09/18 13:29:20;;;;;;;5.13;2.03;;;;;;;;;;750655;185;817406;-55
2022/09/18 13:31:46;;;;;;;5.20;2.83;;;;;;;;;;750875;185;919019;-54
2022/09/18 13:34:14;;;;;;;8.67;2.50;;;;;;;;;;753721;182;923447;-54
2022/09/18 13:36:40;;;;;;;3.30;2.13;;;;;;;;;;747987;185;917705;-55
2022/09/18 13:39:06;;;;;;;4.10;2.00;;;;;;;;;;748642;185;927244;-55
2022/09/18 13:41:38;;;;;;;3.65;1.70;;;;;;;;;;757302;184;813547;-54
2022/09/18 13:44:04;;;;;;;2.63;1.57;;;;;;;;;;759482;184;917548;-55
2022/09/18 13:46:30;;;;;;;3.37;1.83;;;;;;;;;;748419;182;919357;-55
2022/09/18 13:48:57;;;;;;;3.00;1.70;;;;;;;;;;749785;185;916001;-55
2022/09/18 13:51:23;;;;;;;4.50;1.40;;;;;;;;;;755718;185;818663;-54
2022/09/18 13:53:55;;;;;;;3.70;2.00;;;;;;;;;;758997;183;919648;-55
2022/09/18 13:56:20;;;;;;;3.80;1.67;;;;;;;;;;751479;184;918780;-54
2022/09/18 13:58:54;;;;;;;4.10;1.90;;;;;;;;;;756077;184;918576;-55
2022/09/18 14:01:26;;;;;;;8.50;2.27;;;;;;;;;;758374;184;915776;-55
2022/09/18 14:03:51;;;;;;;5.40;1.90;;;;;;;;;;762215;183;817580;-54
2022/09/18 14:06:23;;;;;;;5.90;1.47;;;;;;;;;;753560;184;806683;-54
2022/09/18 14:08:49;;;;;;;5.63;1.83;;;;;;;;;;750013;184;919536;-54
2022/09/18 14:11:15;;;;;;;5.10;2.03;;;;;;;;;;760986;185;919749;-55
2022/09/18 14:13:41;;;;;;;4.77;1.43;;;;;;;;;;754517;182;919577;-55
2022/09/18 14:16:07;;;;;;;3.10;1.87;;;;;;;;;;754239;184;915712;-54
2022/09/18 14:18:34;;;;;;;7.80;1.50;;;;;;;;;;758067;183;902106;-55
2022/09/18 14:21:05;;;;;;;3.00;1.40;;;;;;;;;;760161;182;916781;-54
2022/09/18 14:23:48;;;;;;;4.10;1.70;;;;;;;;;;756502;184;934269;-54
2022/09/18 14:26:29;;;;;;;3.60;1.47;;;;;;;;;;754117;184;919644;-54